sensor_id;sensor_type;location;lat;lon;timestamp;P1;durP1;ratioP1;P2;durP2;ratioP2
69854;SDS011;57146;48.140;16.304;2022-12-07T00:01:24;7.20;;;1.90;;
69854;SDS011;57146;48.140;16.304;2022-12-07T00:04:02;5.60;;;1.80;;
69854;SDS011;57146;48.140;16.304;2022-12-07T00:06:32;5.72;;;1.60;;
69854;SDS011;57146;48.140;16.304;2022-12-07T00:09:00;6.67;;;1.90;;
69854;SDS011;57146;48.140;16.304;2022-12-07T00:11:27;6.38;;;2.10;;
69854;SDS011;57146;48.140;16.304;2022-12-07T00:14:02;7.07;;;1.50;;
69854;SDS011;57146;48.140;16.304;2022-12-07T00:16:33;8.23;;;2.20;;
69854;SDS011;57146;48.140;16.304;2022-12-07T00:19:03;6.55;;;1.90;;
69854;SDS011;57146;48.140;16.304;2022-12-07T00:21:32;6.43;;;1.93;;
69854;SDS011;57146;48.140;16.304;2022-12-07T00:24:01;6.97;;;2.35;;
69854;SDS011;57146;48.140;16.304;2022-12-07T00:26:30;5.97;;;2.22;;
69854;SDS011;57146;48.140;16.304;2022-12-07T00:29:04;8.77;;;2.83;;
69854;SDS011;57146;48.140;16.304;2022-12-07T00:31:34;7.05;;;2.58;;
69854;SDS011;57146;48.140;16.304;2022-12-07T00:34:02;8.07;;;2.90;;
69854;SDS011;57146;48.140;16.304;2022-12-07T00:36:29;10.48;;;3.03;;
69854;SDS011;57146;48.140;16.304;2022-12-07T00:38:57;8.85;;;2.97;;
69854;SDS011;57146;48.140;16.304;2022-12-07T00:41:26;9.68;;;3.10;;
69854;SDS011;57146;48.140;16.304;2022-12-07T00:43:53;8.07;;;3.17;;
69854;SDS011;57146;48.140;16.304;2022-12-07T00:46:21;10.50;;;3.67;;
69854;SDS011;57146;48.140;16.304;2022-12-07T00:48:50;10.00;;;3.75;;
69854;SDS011;57146;48.140;16.304;2022-12-07T00:51:18;9.90;;;3.88;;
69854;SDS011;57146;48.140;16.304;2022-12-07T00:53:47;11.32;;;3.80;;
69854;SDS011;57146;48.140;16.304;2022-12-07T00:56:15;10.20;;;3.60;;
69854;SDS011;57146;48.140;16.304;2022-12-07T00:58:54;9.37;;;3.90;;
69854;SDS011;57146;48.140;16.304;2022-12-07T01:01:23;10.45;;;4.00;;
69854;SDS011;57146;48.140;16.304;2022-12-07T01:03:51;9.95;;;3.78;;
69854;SDS011;57146;48.140;16.304;2022-12-07T01:06:19;11.20;;;4.18;;
69854;SDS011;57146;48.140;16.304;2022-12-07T01:08:47;11.18;;;3.97;;
69854;SDS011;57146;48.140;16.304;2022-12-07T01:11:16;10.70;;;4.03;;
69854;SDS011;57146;48.140;16.304;2022-12-07T01:13:44;10.77;;;4.45;;
69854;SDS011;57146;48.140;16.304;2022-12-07T01:16:13;10.98;;;4.03;;
69854;SDS011;57146;48.140;16.304;2022-12-07T01:18:42;12.02;;;4.35;;
69854;SDS011;57146;48.140;16.304;2022-12-07T01:21:16;11.85;;;4.45;;
69854;SDS011;57146;48.140;16.304;2022-12-07T01:23:45;12.07;;;4.50;;
69854;SDS011;57146;48.140;16.304;2022-12-07T01:26:13;11.45;;;4.18;;
69854;SDS011;57146;48.140;16.304;2022-12-07T01:28:42;10.40;;;4.03;;
69854;SDS011;57146;48.140;16.304;2022-12-07T01:31:12;12.38;;;4.50;;
69854;SDS011;57146;48.140;16.304;2022-12-07T01:33:43;12.13;;;4.60;;
69854;SDS011;57146;48.140;16.304;2022-12-07T01:38:59;12.43;;;4.63;;
69854;SDS011;57146;48.140;16.304;2022-12-07T01:41:30;13.65;;;5.00;;
69854;SDS011;57146;48.140;16.304;2022-12-07T01:46:58;12.02;;;4.70;;
69854;SDS011;57146;48.140;16.304;2022-12-07T01:52:13;11.93;;;4.50;;
69854;SDS011;57146;48.140;16.304;2022-12-07T01:54:41;13.40;;;5.40;;
69854;SDS011;57146;48.140;16.304;2022-12-07T01:57:10;11.85;;;4.65;;
69854;SDS011;57146;48.140;16.304;2022-12-07T01:59:39;14.45;;;5.43;;
69854;SDS011;57146;48.140;16.304;2022-12-07T02:02:10;14.80;;;5.40;;
69854;SDS011;57146;48.140;16.304;2022-12-07T02:04:45;13.43;;;5.50;;
69854;SDS011;57146;48.140;16.304;2022-12-07T02:07:13;14.38;;;5.25;;
69854;SDS011;57146;48.140;16.304;2022-12-07T02:09:40;12.27;;;5.00;;
69854;SDS011;57146;48.140;16.304;2022-12-07T02:12:06;13.65;;;4.88;;
69854;SDS011;57146;48.140;16.304;2022-12-07T02:14:34;13.03;;;4.87;;
69854;SDS011;57146;48.140;16.304;2022-12-07T02:17:03;14.75;;;5.10;;
69854;SDS011;57146;48.140;16.304;2022-12-07T02:19:38;12.77;;;5.00;;
69854;SDS011;57146;48.140;16.304;2022-12-07T02:22:34;12.18;;;4.80;;
69854;SDS011;57146;48.140;16.304;2022-12-07T02:30:28;12.68;;;4.90;;
69854;SDS011;57146;48.140;16.304;2022-12-07T02:35:44;12.43;;;4.72;;
69854;SDS011;57146;48.140;16.304;2022-12-07T02:38:24;13.30;;;5.03;;
69854;SDS011;57146;48.140;16.304;2022-12-07T02:41:06;11.93;;;4.27;;
69854;SDS011;57146;48.140;16.304;2022-12-07T02:43:46;12.73;;;4.88;;
69854;SDS011;57146;48.140;16.304;2022-12-07T02:46:23;13.15;;;4.70;;
69854;SDS011;57146;48.140;16.304;2022-12-07T02:48:54;11.45;;;4.50;;
69854;SDS011;57146;48.140;16.304;2022-12-07T02:51:22;11.82;;;4.30;;
69854;SDS011;57146;48.140;16.304;2022-12-07T02:53:49;11.87;;;4.30;;
69854;SDS011;57146;48.140;16.304;2022-12-07T02:59:14;11.35;;;4.40;;
69854;SDS011;57146;48.140;16.304;2022-12-07T03:05:00;12.38;;;4.30;;
69854;SDS011;57146;48.140;16.304;2022-12-07T03:16:33;12.30;;;4.80;;
69854;SDS011;57146;48.140;16.304;2022-12-07T03:19:09;10.73;;;3.92;;
69854;SDS011;57146;48.140;16.304;2022-12-07T03:21:41;11.20;;;4.07;;
69854;SDS011;57146;48.140;16.304;2022-12-07T03:24:17;10.82;;;3.88;;
69854;SDS011;57146;48.140;16.304;2022-12-07T03:26:49;9.88;;;4.07;;
69854;SDS011;57146;48.140;16.304;2022-12-07T03:29:25;11.02;;;4.13;;
69854;SDS011;57146;48.140;16.304;2022-12-07T03:32:06;11.95;;;3.90;;
69854;SDS011;57146;48.140;16.304;2022-12-07T03:42:46;10.23;;;3.50;;
69854;SDS011;57146;48.140;16.304;2022-12-07T03:45:14;10.82;;;3.67;;
69854;SDS011;57146;48.140;16.304;2022-12-07T03:47:58;10.43;;;3.60;;
69854;SDS011;57146;48.140;16.304;2022-12-07T03:56:22;8.85;;;2.75;;
69854;SDS011;57146;48.140;16.304;2022-12-07T03:58:50;11.15;;;3.80;;
69854;SDS011;57146;48.140;16.304;2022-12-07T04:01:18;9.90;;;3.40;;
69854;SDS011;57146;48.140;16.304;2022-12-07T04:03:45;10.13;;;3.33;;
69854;SDS011;57146;48.140;16.304;2022-12-07T04:06:12;10.27;;;3.53;;
69854;SDS011;57146;48.140;16.304;2022-12-07T04:08:40;10.07;;;3.20;;
69854;SDS011;57146;48.140;16.304;2022-12-07T04:11:07;10.82;;;3.58;;
69854;SDS011;57146;48.140;16.304;2022-12-07T04:13:34;9.13;;;3.27;;
69854;SDS011;57146;48.140;16.304;2022-12-07T04:16:01;9.82;;;3.10;;
69854;SDS011;57146;48.140;16.304;2022-12-07T04:18:27;7.90;;;2.90;;
69854;SDS011;57146;48.140;16.304;2022-12-07T04:20:54;9.25;;;3.03;;
69854;SDS011;57146;48.140;16.304;2022-12-07T04:23:21;10.10;;;3.35;;
69854;SDS011;57146;48.140;16.304;2022-12-07T04:25:48;8.87;;;3.07;;
69854;SDS011;57146;48.140;16.304;2022-12-07T04:28:15;9.77;;;3.30;;
69854;SDS011;57146;48.140;16.304;2022-12-07T04:30:42;9.50;;;2.88;;
69854;SDS011;57146;48.140;16.304;2022-12-07T04:33:08;10.10;;;3.78;;
69854;SDS011;57146;48.140;16.304;2022-12-07T04:35:35;11.40;;;3.80;;
69854;SDS011;57146;48.140;16.304;2022-12-07T04:38:02;11.40;;;3.67;;
69854;SDS011;57146;48.140;16.304;2022-12-07T04:40:30;9.80;;;3.38;;
69854;SDS011;57146;48.140;16.304;2022-12-07T04:42:56;10.60;;;3.50;;
69854;SDS011;57146;48.140;16.304;2022-12-07T04:45:23;11.20;;;3.65;;
69854;SDS011;57146;48.140;16.304;2022-12-07T04:47:50;10.43;;;3.60;;
69854;SDS011;57146;48.140;16.304;2022-12-07T04:50:17;9.77;;;3.50;;
69854;SDS011;57146;48.140;16.304;2022-12-07T04:52:44;10.95;;;3.20;;
69854;SDS011;57146;48.140;16.304;2022-12-07T04:55:11;10.43;;;3.30;;
69854;SDS011;57146;48.140;16.304;2022-12-07T04:57:37;10.20;;;3.17;;
69854;SDS011;57146;48.140;16.304;2022-12-07T05:00:06;10.98;;;3.38;;
69854;SDS011;57146;48.140;16.304;2022-12-07T05:02:33;9.83;;;3.10;;
69854;SDS011;57146;48.140;16.304;2022-12-07T05:05:00;10.77;;;3.83;;
69854;SDS011;57146;48.140;16.304;2022-12-07T05:07:27;9.50;;;3.20;;
69854;SDS011;57146;48.140;16.304;2022-12-07T05:09:54;10.38;;;3.30;;
69854;SDS011;57146;48.140;16.304;2022-12-07T05:12:21;9.85;;;3.05;;
69854;SDS011;57146;48.140;16.304;2022-12-07T05:14:47;9.20;;;2.90;;
69854;SDS011;57146;48.140;16.304;2022-12-07T05:17:14;11.93;;;3.20;;
69854;SDS011;57146;48.140;16.304;2022-12-07T05:19:41;9.43;;;3.00;;
69854;SDS011;57146;48.140;16.304;2022-12-07T05:22:08;10.93;;;3.50;;
69854;SDS011;57146;48.140;16.304;2022-12-07T05:24:35;9.43;;;2.88;;
69854;SDS011;57146;48.140;16.304;2022-12-07T05:27:02;9.97;;;2.73;;
69854;SDS011;57146;48.140;16.304;2022-12-07T05:29:29;8.10;;;2.20;;
69854;SDS011;57146;48.140;16.304;2022-12-07T05:31:56;9.07;;;2.63;;
69854;SDS011;57146;48.140;16.304;2022-12-07T05:34:23;8.85;;;2.78;;
69854;SDS011;57146;48.140;16.304;2022-12-07T05:36:49;8.93;;;2.78;;
69854;SDS011;57146;48.140;16.304;2022-12-07T05:39:16;8.63;;;2.63;;
69854;SDS011;57146;48.140;16.304;2022-12-07T05:41:43;8.52;;;2.58;;
69854;SDS011;57146;48.140;16.304;2022-12-07T05:44:10;8.18;;;2.28;;
69854;SDS011;57146;48.140;16.304;2022-12-07T05:46:37;8.07;;;2.00;;
69854;SDS011;57146;48.140;16.304;2022-12-07T05:49:03;7.53;;;2.10;;
69854;SDS011;57146;48.140;16.304;2022-12-07T05:51:30;8.33;;;2.30;;
69854;SDS011;57146;48.140;16.304;2022-12-07T05:53:57;7.97;;;2.50;;
69854;SDS011;57146;48.140;16.304;2022-12-07T05:56:24;7.20;;;1.98;;
69854;SDS011;57146;48.140;16.304;2022-12-07T05:58:51;7.10;;;2.13;;
69854;SDS011;57146;48.140;16.304;2022-12-07T06:01:17;6.75;;;2.10;;
69854;SDS011;57146;48.140;16.304;2022-12-07T06:03:44;8.77;;;2.50;;
69854;SDS011;57146;48.140;16.304;2022-12-07T06:06:11;7.93;;;2.22;;
69854;SDS011;57146;48.140;16.304;2022-12-07T06:08:38;7.28;;;2.13;;
69854;SDS011;57146;48.140;16.304;2022-12-07T06:11:05;7.97;;;2.20;;
69854;SDS011;57146;48.140;16.304;2022-12-07T06:13:31;7.00;;;2.08;;
69854;SDS011;57146;48.140;16.304;2022-12-07T06:15:58;7.37;;;2.57;;
69854;SDS011;57146;48.140;16.304;2022-12-07T06:18:25;8.70;;;2.60;;
69854;SDS011;57146;48.140;16.304;2022-12-07T06:20:52;7.68;;;2.53;;
69854;SDS011;57146;48.140;16.304;2022-12-07T06:23:18;8.65;;;2.65;;
69854;SDS011;57146;48.140;16.304;2022-12-07T06:25:45;9.60;;;2.45;;
69854;SDS011;57146;48.140;16.304;2022-12-07T06:28:12;7.27;;;2.50;;
69854;SDS011;57146;48.140;16.304;2022-12-07T06:30:39;7.63;;;2.30;;
69854;SDS011;57146;48.140;16.304;2022-12-07T06:33:06;6.82;;;2.13;;
69854;SDS011;57146;48.140;16.304;2022-12-07T06:35:33;8.60;;;2.70;;
69854;SDS011;57146;48.140;16.304;2022-12-07T06:38:00;12.45;;;2.80;;
69854;SDS011;57146;48.140;16.304;2022-12-07T06:40:27;8.53;;;2.80;;
69854;SDS011;57146;48.140;16.304;2022-12-07T06:42:53;7.63;;;2.80;;
69854;SDS011;57146;48.140;16.304;2022-12-07T06:45:21;8.45;;;2.50;;
69854;SDS011;57146;48.140;16.304;2022-12-07T06:47:48;8.85;;;2.92;;
69854;SDS011;57146;48.140;16.304;2022-12-07T06:50:15;8.15;;;2.38;;
69854;SDS011;57146;48.140;16.304;2022-12-07T06:52:42;8.40;;;2.50;;
69854;SDS011;57146;48.140;16.304;2022-12-07T06:55:09;8.13;;;2.42;;
69854;SDS011;57146;48.140;16.304;2022-12-07T06:57:36;9.90;;;2.55;;
69854;SDS011;57146;48.140;16.304;2022-12-07T07:00:02;9.38;;;2.50;;
69854;SDS011;57146;48.140;16.304;2022-12-07T07:02:30;8.25;;;2.47;;
69854;SDS011;57146;48.140;16.304;2022-12-07T07:04:57;7.93;;;2.47;;
69854;SDS011;57146;48.140;16.304;2022-12-07T07:07:24;7.97;;;2.17;;
69854;SDS011;57146;48.140;16.304;2022-12-07T07:09:51;6.82;;;2.00;;
69854;SDS011;57146;48.140;16.304;2022-12-07T07:12:17;6.38;;;2.10;;
69854;SDS011;57146;48.140;16.304;2022-12-07T07:14:44;6.38;;;2.10;;
69854;SDS011;57146;48.140;16.304;2022-12-07T07:17:11;7.03;;;1.90;;
69854;SDS011;57146;48.140;16.304;2022-12-07T07:19:38;8.85;;;2.40;;
69854;SDS011;57146;48.140;16.304;2022-12-07T07:22:05;11.35;;;2.95;;
69854;SDS011;57146;48.140;16.304;2022-12-07T07:24:31;7.70;;;2.42;;
69854;SDS011;57146;48.140;16.304;2022-12-07T07:26:58;7.03;;;2.00;;
69854;SDS011;57146;48.140;16.304;2022-12-07T07:29:25;10.13;;;2.20;;
69854;SDS011;57146;48.140;16.304;2022-12-07T07:31:52;9.63;;;2.10;;
69854;SDS011;57146;48.140;16.304;2022-12-07T07:34:19;6.43;;;2.25;;
69854;SDS011;57146;48.140;16.304;2022-12-07T07:36:46;6.20;;;2.00;;
69854;SDS011;57146;48.140;16.304;2022-12-07T07:39:12;7.38;;;2.10;;
69854;SDS011;57146;48.140;16.304;2022-12-07T07:41:39;8.03;;;2.53;;
69854;SDS011;57146;48.140;16.304;2022-12-07T07:44:11;6.15;;;1.95;;
69854;SDS011;57146;48.140;16.304;2022-12-07T07:46:40;6.93;;;2.10;;
69854;SDS011;57146;48.140;16.304;2022-12-07T07:49:08;8.32;;;2.30;;
69854;SDS011;57146;48.140;16.304;2022-12-07T07:51:36;4.65;;;1.55;;
69854;SDS011;57146;48.140;16.304;2022-12-07T07:54:03;5.80;;;1.70;;
69854;SDS011;57146;48.140;16.304;2022-12-07T07:56:30;5.63;;;1.63;;
69854;SDS011;57146;48.140;16.304;2022-12-07T07:58:57;6.72;;;1.80;;
69854;SDS011;57146;48.140;16.304;2022-12-07T08:01:24;6.13;;;2.00;;
69854;SDS011;57146;48.140;16.304;2022-12-07T08:03:51;6.85;;;2.00;;
69854;SDS011;57146;48.140;16.304;2022-12-07T08:06:18;6.20;;;1.90;;
69854;SDS011;57146;48.140;16.304;2022-12-07T08:08:45;6.53;;;1.90;;
69854;SDS011;57146;48.140;16.304;2022-12-07T08:11:13;7.30;;;2.08;;
69854;SDS011;57146;48.140;16.304;2022-12-07T08:13:39;6.57;;;1.80;;
69854;SDS011;57146;48.140;16.304;2022-12-07T08:16:07;6.15;;;1.67;;
69854;SDS011;57146;48.140;16.304;2022-12-07T08:18:36;6.63;;;1.63;;
69854;SDS011;57146;48.140;16.304;2022-12-07T08:21:06;5.93;;;1.90;;
69854;SDS011;57146;48.140;16.304;2022-12-07T08:23:36;6.28;;;1.90;;
69854;SDS011;57146;48.140;16.304;2022-12-07T08:26:07;7.22;;;2.35;;
69854;SDS011;57146;48.140;16.304;2022-12-07T08:28:37;5.25;;;1.58;;
69854;SDS011;57146;48.140;16.304;2022-12-07T08:31:08;5.60;;;1.97;;
69854;SDS011;57146;48.140;16.304;2022-12-07T08:33:38;5.85;;;1.70;;
69854;SDS011;57146;48.140;16.304;2022-12-07T08:36:07;4.90;;;1.33;;
69854;SDS011;57146;48.140;16.304;2022-12-07T08:38:36;5.43;;;1.50;;
69854;SDS011;57146;48.140;16.304;2022-12-07T08:41:04;4.68;;;1.40;;
69854;SDS011;57146;48.140;16.304;2022-12-07T08:43:31;6.73;;;1.63;;
69854;SDS011;57146;48.140;16.304;2022-12-07T08:46:03;5.85;;;1.75;;
69854;SDS011;57146;48.140;16.304;2022-12-07T08:48:36;5.25;;;1.40;;
69854;SDS011;57146;48.140;16.304;2022-12-07T08:51:09;5.25;;;1.42;;
69854;SDS011;57146;48.140;16.304;2022-12-07T08:53:37;6.20;;;1.80;;
69854;SDS011;57146;48.140;16.304;2022-12-07T08:56:05;5.83;;;1.77;;
69854;SDS011;57146;48.140;16.304;2022-12-07T08:58:33;6.75;;;1.88;;
69854;SDS011;57146;48.140;16.304;2022-12-07T09:01:02;8.00;;;1.80;;
69854;SDS011;57146;48.140;16.304;2022-12-07T09:03:29;4.50;;;1.30;;
69854;SDS011;57146;48.140;16.304;2022-12-07T09:05:57;5.88;;;1.50;;
69854;SDS011;57146;48.140;16.304;2022-12-07T09:08:26;4.30;;;1.47;;
69854;SDS011;57146;48.140;16.304;2022-12-07T09:10:58;5.65;;;1.70;;
69854;SDS011;57146;48.140;16.304;2022-12-07T09:13:25;5.53;;;1.60;;
69854;SDS011;57146;48.140;16.304;2022-12-07T09:15:52;6.10;;;1.60;;
69854;SDS011;57146;48.140;16.304;2022-12-07T09:18:19;6.50;;;1.40;;
69854;SDS011;57146;48.140;16.304;2022-12-07T09:20:46;6.77;;;1.60;;
69854;SDS011;57146;48.140;16.304;2022-12-07T09:23:12;4.82;;;1.60;;
69854;SDS011;57146;48.140;16.304;2022-12-07T09:25:39;5.72;;;1.90;;
69854;SDS011;57146;48.140;16.304;2022-12-07T09:28:06;6.18;;;2.03;;
69854;SDS011;57146;48.140;16.304;2022-12-07T09:30:33;6.25;;;2.30;;
69854;SDS011;57146;48.140;16.304;2022-12-07T09:33:18;6.90;;;2.10;;
69854;SDS011;57146;48.140;16.304;2022-12-07T09:35:46;6.32;;;1.80;;
69854;SDS011;57146;48.140;16.304;2022-12-07T09:38:17;7.55;;;2.30;;
69854;SDS011;57146;48.140;16.304;2022-12-07T09:40:46;6.40;;;2.13;;
69854;SDS011;57146;48.140;16.304;2022-12-07T09:43:14;7.45;;;2.42;;
69854;SDS011;57146;48.140;16.304;2022-12-07T09:45:47;9.87;;;2.53;;
69854;SDS011;57146;48.140;16.304;2022-12-07T09:48:17;7.18;;;2.05;;
69854;SDS011;57146;48.140;16.304;2022-12-07T09:50:47;6.85;;;2.30;;
69854;SDS011;57146;48.140;16.304;2022-12-07T09:53:34;7.10;;;2.42;;
69854;SDS011;57146;48.140;16.304;2022-12-07T09:56:03;11.90;;;3.00;;
69854;SDS011;57146;48.140;16.304;2022-12-07T09:58:32;6.83;;;2.23;;
69854;SDS011;57146;48.140;16.304;2022-12-07T10:01:00;7.05;;;2.60;;
69854;SDS011;57146;48.140;16.304;2022-12-07T10:03:37;5.88;;;2.20;;
69854;SDS011;57146;48.140;16.304;2022-12-07T10:06:06;7.38;;;2.22;;
69854;SDS011;57146;48.140;16.304;2022-12-07T10:08:33;5.35;;;1.73;;
69854;SDS011;57146;48.140;16.304;2022-12-07T10:11:01;6.70;;;1.87;;
69854;SDS011;57146;48.140;16.304;2022-12-07T10:13:36;5.75;;;1.70;;
69854;SDS011;57146;48.140;16.304;2022-12-07T10:16:04;6.03;;;1.77;;
69854;SDS011;57146;48.140;16.304;2022-12-07T10:18:36;6.22;;;1.92;;
69854;SDS011;57146;48.140;16.304;2022-12-07T10:29:12;7.22;;;1.80;;
69854;SDS011;57146;48.140;16.304;2022-12-07T10:31:42;6.82;;;1.70;;
69854;SDS011;57146;48.140;16.304;2022-12-07T10:34:24;7.60;;;1.75;;
69854;SDS011;57146;48.140;16.304;2022-12-07T10:36:53;5.87;;;1.80;;
69854;SDS011;57146;48.140;16.304;2022-12-07T10:39:39;5.05;;;1.48;;
69854;SDS011;57146;48.140;16.304;2022-12-07T10:42:18;6.68;;;1.90;;
69854;SDS011;57146;48.140;16.304;2022-12-07T10:44:47;5.93;;;1.73;;
69854;SDS011;57146;48.140;16.304;2022-12-07T11:03:55;4.67;;;1.50;;
69854;SDS011;57146;48.140;16.304;2022-12-07T11:06:33;5.25;;;1.40;;
69854;SDS011;57146;48.140;16.304;2022-12-07T11:15:00;6.03;;;1.70;;
69854;SDS011;57146;48.140;16.304;2022-12-07T11:25:55;5.60;;;1.70;;
69854;SDS011;57146;48.140;16.304;2022-12-07T11:37:03;6.43;;;1.52;;
69854;SDS011;57146;48.140;16.304;2022-12-07T11:39:44;6.53;;;1.70;;
69854;SDS011;57146;48.140;16.304;2022-12-07T11:42:20;5.20;;;1.67;;
69854;SDS011;57146;48.140;16.304;2022-12-07T11:44:53;5.90;;;2.00;;
69854;SDS011;57146;48.140;16.304;2022-12-07T11:47:35;7.20;;;2.00;;
69854;SDS011;57146;48.140;16.304;2022-12-07T11:55:32;6.20;;;1.77;;
69854;SDS011;57146;48.140;16.304;2022-12-07T12:05:18;6.65;;;2.20;;
69854;SDS011;57146;48.140;16.304;2022-12-07T12:07:13;6.80;;;2.00;;
69854;SDS011;57146;48.140;16.304;2022-12-07T12:10:05;7.53;;;1.95;;
69854;SDS011;57146;48.140;16.304;2022-12-07T12:15:47;6.05;;;1.92;;
69854;SDS011;57146;48.140;16.304;2022-12-07T12:20:57;9.15;;;2.03;;
69854;SDS011;57146;48.140;16.304;2022-12-07T12:26:19;6.57;;;1.90;;
69854;SDS011;57146;48.140;16.304;2022-12-07T12:28:50;9.77;;;2.00;;
69854;SDS011;57146;48.140;16.304;2022-12-07T12:34:31;7.18;;;1.58;;
69854;SDS011;57146;48.140;16.304;2022-12-07T12:36:57;5.50;;;1.30;;
69854;SDS011;57146;48.140;16.304;2022-12-07T12:39:24;5.87;;;1.80;;
69854;SDS011;57146;48.140;16.304;2022-12-07T12:41:55;5.30;;;1.65;;
69854;SDS011;57146;48.140;16.304;2022-12-07T12:50:17;5.70;;;1.58;;
69854;SDS011;57146;48.140;16.304;2022-12-07T12:52:48;6.17;;;1.70;;
69854;SDS011;57146;48.140;16.304;2022-12-07T12:55:26;6.15;;;1.60;;
69854;SDS011;57146;48.140;16.304;2022-12-07T13:00:44;5.43;;;1.77;;
69854;SDS011;57146;48.140;16.304;2022-12-07T13:03:22;4.72;;;1.42;;
69854;SDS011;57146;48.140;16.304;2022-12-07T13:08:51;8.68;;;1.80;;
69854;SDS011;57146;48.140;16.304;2022-12-07T13:11:33;6.85;;;1.75;;
69854;SDS011;57146;48.140;16.304;2022-12-07T13:19:59;9.67;;;2.73;;
69854;SDS011;57146;48.140;16.304;2022-12-07T13:24:57;7.18;;;2.40;;
69854;SDS011;57146;48.140;16.304;2022-12-07T13:31:09;6.88;;;2.20;;
69854;SDS011;57146;48.140;16.304;2022-12-07T13:33:37;8.67;;;2.40;;
69854;SDS011;57146;48.140;16.304;2022-12-07T13:36:04;6.65;;;1.90;;
69854;SDS011;57146;48.140;16.304;2022-12-07T13:38:48;8.65;;;2.33;;
69854;SDS011;57146;48.140;16.304;2022-12-07T13:41:18;7.63;;;2.30;;
69854;SDS011;57146;48.140;16.304;2022-12-07T13:43:51;9.25;;;2.55;;
69854;SDS011;57146;48.140;16.304;2022-12-07T13:46:30;6.90;;;2.20;;
69854;SDS011;57146;48.140;16.304;2022-12-07T13:49:16;6.70;;;2.03;;
69854;SDS011;57146;48.140;16.304;2022-12-07T13:51:46;7.55;;;2.50;;
69854;SDS011;57146;48.140;16.304;2022-12-07T13:54:16;6.47;;;2.00;;
69854;SDS011;57146;48.140;16.304;2022-12-07T13:56:44;7.70;;;2.00;;
69854;SDS011;57146;48.140;16.304;2022-12-07T13:59:22;8.30;;;2.23;;
69854;SDS011;57146;48.140;16.304;2022-12-07T14:01:51;8.07;;;2.53;;
69854;SDS011;57146;48.140;16.304;2022-12-07T14:04:28;7.50;;;2.33;;
69854;SDS011;57146;48.140;16.304;2022-12-07T14:07:22;10.70;;;2.72;;
69854;SDS011;57146;48.140;16.304;2022-12-07T14:09:54;8.10;;;2.72;;
69854;SDS011;57146;48.140;16.304;2022-12-07T14:12:21;7.33;;;2.60;;
69854;SDS011;57146;48.140;16.304;2022-12-07T14:14:49;7.57;;;2.40;;
69854;SDS011;57146;48.140;16.304;2022-12-07T14:17:20;12.52;;;2.80;;
69854;SDS011;57146;48.140;16.304;2022-12-07T14:20:01;7.05;;;2.50;;
69854;SDS011;57146;48.140;16.304;2022-12-07T14:22:30;7.75;;;2.40;;
69854;SDS011;57146;48.140;16.304;2022-12-07T14:24:58;7.20;;;2.17;;
69854;SDS011;57146;48.140;16.304;2022-12-07T14:27:56;7.35;;;2.15;;
69854;SDS011;57146;48.140;16.304;2022-12-07T14:30:29;11.60;;;2.60;;
69854;SDS011;57146;48.140;16.304;2022-12-07T14:32:59;9.00;;;2.83;;
69854;SDS011;57146;48.140;16.304;2022-12-07T14:35:27;7.70;;;2.72;;
69854;SDS011;57146;48.140;16.304;2022-12-07T14:37:55;9.67;;;2.57;;
69854;SDS011;57146;48.140;16.304;2022-12-07T14:40:28;8.18;;;2.72;;
69854;SDS011;57146;48.140;16.304;2022-12-07T14:43:03;8.75;;;2.25;;
69854;SDS011;57146;48.140;16.304;2022-12-07T14:45:32;7.47;;;2.75;;
69854;SDS011;57146;48.140;16.304;2022-12-07T14:47:59;9.73;;;2.50;;
69854;SDS011;57146;48.140;16.304;2022-12-07T14:50:51;8.47;;;2.57;;
69854;SDS011;57146;48.140;16.304;2022-12-07T14:53:44;8.63;;;2.38;;
69854;SDS011;57146;48.140;16.304;2022-12-07T14:56:22;8.95;;;3.00;;
69854;SDS011;57146;48.140;16.304;2022-12-07T14:58:49;8.32;;;2.47;;
69854;SDS011;57146;48.140;16.304;2022-12-07T15:01:16;8.43;;;2.70;;
69854;SDS011;57146;48.140;16.304;2022-12-07T15:03:43;7.17;;;2.50;;
69854;SDS011;57146;48.140;16.304;2022-12-07T15:06:13;10.43;;;2.65;;
69854;SDS011;57146;48.140;16.304;2022-12-07T15:08:41;9.20;;;3.03;;
69854;SDS011;57146;48.140;16.304;2022-12-07T15:11:10;7.47;;;2.72;;
69854;SDS011;57146;48.140;16.304;2022-12-07T15:13:39;8.18;;;2.70;;
69854;SDS011;57146;48.140;16.304;2022-12-07T15:16:13;9.37;;;2.70;;
69854;SDS011;57146;48.140;16.304;2022-12-07T15:18:43;8.45;;;2.70;;
69854;SDS011;57146;48.140;16.304;2022-12-07T15:21:29;8.30;;;2.83;;
69854;SDS011;57146;48.140;16.304;2022-12-07T15:23:56;7.88;;;2.75;;
69854;SDS011;57146;48.140;16.304;2022-12-07T15:26:23;9.80;;;3.17;;
69854;SDS011;57146;48.140;16.304;2022-12-07T15:28:52;8.83;;;3.00;;
69854;SDS011;57146;48.140;16.304;2022-12-07T15:31:19;7.32;;;2.70;;
69854;SDS011;57146;48.140;16.304;2022-12-07T15:34:06;8.95;;;3.00;;
69854;SDS011;57146;48.140;16.304;2022-12-07T15:36:33;9.18;;;2.83;;
69854;SDS011;57146;48.140;16.304;2022-12-07T15:39:01;8.20;;;2.75;;
69854;SDS011;57146;48.140;16.304;2022-12-07T15:41:40;7.80;;;2.80;;
69854;SDS011;57146;48.140;16.304;2022-12-07T15:44:08;10.98;;;2.88;;
69854;SDS011;57146;48.140;16.304;2022-12-07T15:46:39;9.65;;;2.50;;
69854;SDS011;57146;48.140;16.304;2022-12-07T15:49:11;9.70;;;2.88;;
69854;SDS011;57146;48.140;16.304;2022-12-07T15:51:40;8.60;;;2.92;;
69854;SDS011;57146;48.140;16.304;2022-12-07T15:54:22;9.23;;;3.03;;
69854;SDS011;57146;48.140;16.304;2022-12-07T15:56:50;9.23;;;2.80;;
69854;SDS011;57146;48.140;16.304;2022-12-07T15:59:18;8.05;;;2.60;;
69854;SDS011;57146;48.140;16.304;2022-12-07T16:01:44;8.32;;;2.72;;
69854;SDS011;57146;48.140;16.304;2022-12-07T16:04:12;7.70;;;2.38;;
69854;SDS011;57146;48.140;16.304;2022-12-07T16:06:39;8.87;;;2.97;;
69854;SDS011;57146;48.140;16.304;2022-12-07T16:09:06;8.02;;;2.80;;
69854;SDS011;57146;48.140;16.304;2022-12-07T16:11:33;7.80;;;2.35;;
69854;SDS011;57146;48.140;16.304;2022-12-07T16:14:00;8.20;;;2.40;;
69854;SDS011;57146;48.140;16.304;2022-12-07T16:16:27;8.93;;;2.55;;
69854;SDS011;57146;48.140;16.304;2022-12-07T16:18:54;10.27;;;2.93;;
69854;SDS011;57146;48.140;16.304;2022-12-07T16:21:22;9.27;;;2.70;;
69854;SDS011;57146;48.140;16.304;2022-12-07T16:23:51;7.78;;;2.80;;
69854;SDS011;57146;48.140;16.304;2022-12-07T16:26:19;10.18;;;2.90;;
69854;SDS011;57146;48.140;16.304;2022-12-07T16:28:48;7.38;;;2.38;;
69854;SDS011;57146;48.140;16.304;2022-12-07T16:31:17;9.37;;;2.80;;
69854;SDS011;57146;48.140;16.304;2022-12-07T16:33:45;7.93;;;2.80;;
69854;SDS011;57146;48.140;16.304;2022-12-07T16:36:13;11.98;;;3.53;;
69854;SDS011;57146;48.140;16.304;2022-12-07T16:38:50;11.23;;;2.80;;
69854;SDS011;57146;48.140;16.304;2022-12-07T16:41:17;8.85;;;2.40;;
69854;SDS011;57146;48.140;16.304;2022-12-07T16:43:45;9.60;;;2.63;;
69854;SDS011;57146;48.140;16.304;2022-12-07T16:46:12;8.30;;;2.92;;
69854;SDS011;57146;48.140;16.304;2022-12-07T16:48:41;9.40;;;2.75;;
69854;SDS011;57146;48.140;16.304;2022-12-07T16:51:10;10.45;;;3.10;;
69854;SDS011;57146;48.140;16.304;2022-12-07T16:53:38;8.52;;;3.00;;
69854;SDS011;57146;48.140;16.304;2022-12-07T16:56:14;9.33;;;2.97;;
69854;SDS011;57146;48.140;16.304;2022-12-07T16:58:42;8.52;;;2.80;;
69854;SDS011;57146;48.140;16.304;2022-12-07T17:01:12;9.85;;;3.10;;
69854;SDS011;57146;48.140;16.304;2022-12-07T17:03:42;9.10;;;3.17;;
69854;SDS011;57146;48.140;16.304;2022-12-07T17:06:11;8.85;;;2.83;;
69854;SDS011;57146;48.140;16.304;2022-12-07T17:08:43;10.87;;;3.13;;